sensor_id;sensor_type;location;lat;lon;timestamp;P1;durP1;ratioP1;P2;durP2;ratioP2
49131;SDS011;35149;51.196;6.204;2024-01-07T00:01:46;30.17;;;19.70;;
49131;SDS011;35149;51.196;6.204;2024-01-07T00:04:14;31.23;;;19.33;;
49131;SDS011;35149;51.196;6.204;2024-01-07T00:06:45;29.27;;;19.60;;
49131;SDS011;35149;51.196;6.204;2024-01-07T00:09:12;33.67;;;20.70;;
49131;SDS011;35149;51.196;6.204;2024-01-07T00:11:40;32.88;;;20.63;;
49131;SDS011;35149;51.196;6.204;2024-01-07T00:14:07;32.75;;;20.88;;
49131;SDS011;35149;51.196;6.204;2024-01-07T00:16:34;31.75;;;19.75;;
49131;SDS011;35149;51.196;6.204;2024-01-07T00:19:00;32.75;;;20.98;;
49131;SDS011;35149;51.196;6.204;2024-01-07T00:21:27;31.90;;;20.73;;
49131;SDS011;35149;51.196;6.204;2024-01-07T00:23:56;33.83;;;20.83;;
49131;SDS011;35149;51.196;6.204;2024-01-07T00:26:22;36.60;;;22.27;;
49131;SDS011;35149;51.196;6.204;2024-01-07T00:28:49;34.85;;;22.45;;
49131;SDS011;35149;51.196;6.204;2024-01-07T00:31:16;34.33;;;22.88;;
49131;SDS011;35149;51.196;6.204;2024-01-07T00:33:43;41.00;;;23.02;;
49131;SDS011;35149;51.196;6.204;2024-01-07T00:36:10;39.97;;;24.45;;
49131;SDS011;35149;51.196;6.204;2024-01-07T00:38:37;33.97;;;21.70;;
49131;SDS011;35149;51.196;6.204;2024-01-07T00:41:04;35.63;;;22.98;;
49131;SDS011;35149;51.196;6.204;2024-01-07T00:43:31;32.20;;;21.58;;
49131;SDS011;35149;51.196;6.204;2024-01-07T00:45:58;32.55;;;20.63;;
49131;SDS011;35149;51.196;6.204;2024-01-07T00:48:27;31.63;;;20.35;;
49131;SDS011;35149;51.196;6.204;2024-01-07T00:50:54;36.90;;;22.35;;
49131;SDS011;35149;51.196;6.204;2024-01-07T00:53:21;34.85;;;21.05;;
49131;SDS011;35149;51.196;6.204;2024-01-07T00:55:48;33.78;;;20.33;;
49131;SDS011;35149;51.196;6.204;2024-01-07T00:58:14;31.35;;;19.38;;
49131;SDS011;35149;51.196;6.204;2024-01-07T01:00:43;33.22;;;19.77;;
49131;SDS011;35149;51.196;6.204;2024-01-07T01:03:13;32.00;;;20.00;;
49131;SDS011;35149;51.196;6.204;2024-01-07T01:05:47;36.95;;;21.02;;
49131;SDS011;35149;51.196;6.204;2024-01-07T01:08:14;31.65;;;20.02;;
49131;SDS011;35149;51.196;6.204;2024-01-07T01:10:41;30.67;;;19.83;;
49131;SDS011;35149;51.196;6.204;2024-01-07T01:13:10;31.50;;;19.90;;
49131;SDS011;35149;51.196;6.204;2024-01-07T01:15:37;31.25;;;19.27;;
49131;SDS011;35149;51.196;6.204;2024-01-07T01:18:07;29.48;;;18.13;;
49131;SDS011;35149;51.196;6.204;2024-01-07T01:20:34;26.70;;;17.42;;
49131;SDS011;35149;51.196;6.204;2024-01-07T01:23:02;29.90;;;18.73;;
49131;SDS011;35149;51.196;6.204;2024-01-07T01:25:29;32.20;;;19.48;;
49131;SDS011;35149;51.196;6.204;2024-01-07T01:27:57;27.33;;;17.13;;
49131;SDS011;35149;51.196;6.204;2024-01-07T01:30:26;23.95;;;15.68;;
49131;SDS011;35149;51.196;6.204;2024-01-07T01:32:57;25.30;;;16.25;;
49131;SDS011;35149;51.196;6.204;2024-01-07T01:35:24;25.60;;;15.90;;
49131;SDS011;35149;51.196;6.204;2024-01-07T01:37:50;23.60;;;15.07;;
49131;SDS011;35149;51.196;6.204;2024-01-07T01:40:17;26.08;;;15.45;;
49131;SDS011;35149;51.196;6.204;2024-01-07T01:42:44;22.48;;;15.00;;
49131;SDS011;35149;51.196;6.204;2024-01-07T01:45:14;23.98;;;15.25;;
49131;SDS011;35149;51.196;6.204;2024-01-07T01:47:41;23.35;;;15.40;;
49131;SDS011;35149;51.196;6.204;2024-01-07T01:50:08;24.67;;;15.68;;
49131;SDS011;35149;51.196;6.204;2024-01-07T01:52:36;24.52;;;16.60;;
49131;SDS011;35149;51.196;6.204;2024-01-07T01:55:08;26.67;;;15.85;;
49131;SDS011;35149;51.196;6.204;2024-01-07T01:57:35;25.35;;;15.82;;
49131;SDS011;35149;51.196;6.204;2024-01-07T02:00:04;24.88;;;15.30;;
49131;SDS011;35149;51.196;6.204;2024-01-07T02:02:32;25.35;;;15.57;;
49131;SDS011;35149;51.196;6.204;2024-01-07T02:05:03;22.15;;;15.35;;
49131;SDS011;35149;51.196;6.204;2024-01-07T02:07:31;23.02;;;14.05;;
49131;SDS011;35149;51.196;6.204;2024-01-07T02:09:59;22.00;;;14.70;;
49131;SDS011;35149;51.196;6.204;2024-01-07T02:12:28;22.58;;;13.57;;
49131;SDS011;35149;51.196;6.204;2024-01-07T02:14:55;21.75;;;14.18;;
49131;SDS011;35149;51.196;6.204;2024-01-07T02:17:26;20.88;;;13.88;;
49131;SDS011;35149;51.196;6.204;2024-01-07T02:19:57;22.48;;;13.73;;
49131;SDS011;35149;51.196;6.204;2024-01-07T02:22:29;24.10;;;14.25;;
49131;SDS011;35149;51.196;6.204;2024-01-07T02:24:55;23.02;;;13.93;;
49131;SDS011;35149;51.196;6.204;2024-01-07T02:27:22;23.15;;;13.60;;
49131;SDS011;35149;51.196;6.204;2024-01-07T02:29:51;24.00;;;13.88;;
49131;SDS011;35149;51.196;6.204;2024-01-07T02:32:18;20.55;;;14.75;;
49131;SDS011;35149;51.196;6.204;2024-01-07T02:34:45;18.85;;;12.85;;
49131;SDS011;35149;51.196;6.204;2024-01-07T02:37:13;24.30;;;15.25;;
49131;SDS011;35149;51.196;6.204;2024-01-07T02:39:40;20.48;;;13.70;;
49131;SDS011;35149;51.196;6.204;2024-01-07T02:42:10;24.88;;;15.32;;
49131;SDS011;35149;51.196;6.204;2024-01-07T02:44:40;20.70;;;12.93;;
49131;SDS011;35149;51.196;6.204;2024-01-07T02:47:09;21.63;;;13.23;;
49131;SDS011;35149;51.196;6.204;2024-01-07T02:49:41;23.70;;;15.45;;
49131;SDS011;35149;51.196;6.204;2024-01-07T02:52:12;20.48;;;13.40;;
49131;SDS011;35149;51.196;6.204;2024-01-07T02:54:38;21.92;;;13.65;;
49131;SDS011;35149;51.196;6.204;2024-01-07T02:57:05;23.75;;;15.27;;
49131;SDS011;35149;51.196;6.204;2024-01-07T02:59:40;22.27;;;13.68;;
49131;SDS011;35149;51.196;6.204;2024-01-07T03:02:13;22.50;;;14.20;;
49131;SDS011;35149;51.196;6.204;2024-01-07T03:04:45;22.25;;;15.05;;
49131;SDS011;35149;51.196;6.204;2024-01-07T03:07:12;21.17;;;13.75;;
49131;SDS011;35149;51.196;6.204;2024-01-07T03:09:45;20.75;;;14.02;;
49131;SDS011;35149;51.196;6.204;2024-01-07T03:12:19;25.13;;;14.18;;
49131;SDS011;35149;51.196;6.204;2024-01-07T03:14:46;21.90;;;13.77;;
49131;SDS011;35149;51.196;6.204;2024-01-07T03:17:15;19.50;;;13.25;;
49131;SDS011;35149;51.196;6.204;2024-01-07T03:19:45;20.58;;;13.13;;
49131;SDS011;35149;51.196;6.204;2024-01-07T03:22:12;17.83;;;12.10;;
49131;SDS011;35149;51.196;6.204;2024-01-07T03:24:46;18.40;;;12.48;;
49131;SDS011;35149;51.196;6.204;2024-01-07T03:27:17;18.25;;;12.52;;
49131;SDS011;35149;51.196;6.204;2024-01-07T03:29:44;18.50;;;12.65;;
49131;SDS011;35149;51.196;6.204;2024-01-07T03:32:13;22.08;;;16.02;;
49131;SDS011;35149;51.196;6.204;2024-01-07T03:34:43;21.38;;;15.25;;
49131;SDS011;35149;51.196;6.204;2024-01-07T03:37:13;21.17;;;14.60;;
49131;SDS011;35149;51.196;6.204;2024-01-07T03:39:51;21.50;;;14.38;;
49131;SDS011;35149;51.196;6.204;2024-01-07T03:42:18;20.55;;;14.80;;
49131;SDS011;35149;51.196;6.204;2024-01-07T03:44:46;22.00;;;14.82;;
49131;SDS011;35149;51.196;6.204;2024-01-07T03:47:16;21.45;;;15.15;;
49131;SDS011;35149;51.196;6.204;2024-01-07T03:49:50;23.00;;;15.10;;
49131;SDS011;35149;51.196;6.204;2024-01-07T03:52:17;24.58;;;15.50;;
49131;SDS011;35149;51.196;6.204;2024-01-07T03:54:46;23.75;;;14.95;;
49131;SDS011;35149;51.196;6.204;2024-01-07T03:57:13;20.85;;;14.50;;
49131;SDS011;35149;51.196;6.204;2024-01-07T03:59:39;21.02;;;14.10;;
49131;SDS011;35149;51.196;6.204;2024-01-07T04:02:08;21.05;;;14.60;;
49131;SDS011;35149;51.196;6.204;2024-01-07T04:04:37;21.95;;;14.23;;
49131;SDS011;35149;51.196;6.204;2024-01-07T04:07:07;23.30;;;15.35;;
49131;SDS011;35149;51.196;6.204;2024-01-07T04:09:35;21.55;;;14.25;;
49131;SDS011;35149;51.196;6.204;2024-01-07T04:14:37;20.13;;;12.45;;
49131;SDS011;35149;51.196;6.204;2024-01-07T04:17:05;23.70;;;14.88;;
49131;SDS011;35149;51.196;6.204;2024-01-07T04:19:36;25.23;;;15.05;;
49131;SDS011;35149;51.196;6.204;2024-01-07T04:22:06;21.40;;;14.52;;
49131;SDS011;35149;51.196;6.204;2024-01-07T04:24:40;26.20;;;16.07;;
49131;SDS011;35149;51.196;6.204;2024-01-07T04:29:44;23.30;;;14.25;;
49131;SDS011;35149;51.196;6.204;2024-01-07T04:32:10;24.83;;;14.63;;
49131;SDS011;35149;51.196;6.204;2024-01-07T04:34:37;25.65;;;17.25;;
49131;SDS011;35149;51.196;6.204;2024-01-07T04:37:13;23.45;;;15.88;;
49131;SDS011;35149;51.196;6.204;2024-01-07T04:39:41;26.40;;;16.17;;
49131;SDS011;35149;51.196;6.204;2024-01-07T04:42:11;23.50;;;15.23;;
49131;SDS011;35149;51.196;6.204;2024-01-07T04:44:39;22.67;;;15.13;;
49131;SDS011;35149;51.196;6.204;2024-01-07T04:47:27;24.60;;;15.80;;
49131;SDS011;35149;51.196;6.204;2024-01-07T04:50:00;23.48;;;14.93;;
49131;SDS011;35149;51.196;6.204;2024-01-07T04:55:01;19.58;;;12.88;;
49131;SDS011;35149;51.196;6.204;2024-01-07T04:57:27;23.05;;;13.45;;
49131;SDS011;35149;51.196;6.204;2024-01-07T04:59:57;23.50;;;13.98;;
49131;SDS011;35149;51.196;6.204;2024-01-07T05:02:25;22.88;;;15.27;;
49131;SDS011;35149;51.196;6.204;2024-01-07T05:04:53;23.92;;;14.50;;
49131;SDS011;35149;51.196;6.204;2024-01-07T05:07:22;24.52;;;17.40;;
49131;SDS011;35149;51.196;6.204;2024-01-07T05:09:55;23.27;;;14.88;;
49131;SDS011;35149;51.196;6.204;2024-01-07T05:12:30;22.40;;;15.27;;
49131;SDS011;35149;51.196;6.204;2024-01-07T05:14:58;24.33;;;15.73;;
49131;SDS011;35149;51.196;6.204;2024-01-07T05:17:29;27.20;;;16.05;;
49131;SDS011;35149;51.196;6.204;2024-01-07T05:20:07;20.17;;;14.10;;
49131;SDS011;35149;51.196;6.204;2024-01-07T05:22:36;24.50;;;16.23;;
49131;SDS011;35149;51.196;6.204;2024-01-07T05:25:03;21.95;;;15.05;;
49131;SDS011;35149;51.196;6.204;2024-01-07T05:27:31;20.58;;;13.90;;
49131;SDS011;35149;51.196;6.204;2024-01-07T05:29:57;21.45;;;14.20;;
49131;SDS011;35149;51.196;6.204;2024-01-07T05:32:29;21.85;;;13.30;;
49131;SDS011;35149;51.196;6.204;2024-01-07T05:34:58;18.42;;;14.02;;
49131;SDS011;35149;51.196;6.204;2024-01-07T05:37:26;20.50;;;13.45;;
49131;SDS011;35149;51.196;6.204;2024-01-07T05:40:02;17.27;;;12.73;;
49131;SDS011;35149;51.196;6.204;2024-01-07T05:42:33;17.55;;;11.93;;
49131;SDS011;35149;51.196;6.204;2024-01-07T05:45:00;16.67;;;12.90;;
49131;SDS011;35149;51.196;6.204;2024-01-07T05:47:29;17.88;;;13.50;;
49131;SDS011;35149;51.196;6.204;2024-01-07T05:49:56;19.50;;;12.70;;
49131;SDS011;35149;51.196;6.204;2024-01-07T05:52:27;16.02;;;12.55;;
49131;SDS011;35149;51.196;6.204;2024-01-07T05:54:53;17.35;;;12.73;;
49131;SDS011;35149;51.196;6.204;2024-01-07T05:57:20;19.63;;;13.60;;
49131;SDS011;35149;51.196;6.204;2024-01-07T05:59:47;19.20;;;14.48;;
49131;SDS011;35149;51.196;6.204;2024-01-07T06:02:22;20.10;;;15.00;;
49131;SDS011;35149;51.196;6.204;2024-01-07T06:04:52;23.05;;;15.13;;
49131;SDS011;35149;51.196;6.204;2024-01-07T06:07:42;21.52;;;14.30;;
49131;SDS011;35149;51.196;6.204;2024-01-07T06:10:09;22.35;;;15.95;;
49131;SDS011;35149;51.196;6.204;2024-01-07T06:12:35;19.50;;;15.88;;
49131;SDS011;35149;51.196;6.204;2024-01-07T06:15:13;23.95;;;15.50;;
49131;SDS011;35149;51.196;6.204;2024-01-07T06:17:44;22.40;;;15.43;;
49131;SDS011;35149;51.196;6.204;2024-01-07T06:20:16;23.67;;;15.20;;
49131;SDS011;35149;51.196;6.204;2024-01-07T06:22:45;24.95;;;15.00;;
49131;SDS011;35149;51.196;6.204;2024-01-07T06:25:15;18.42;;;13.57;;
49131;SDS011;35149;51.196;6.204;2024-01-07T06:30:18;17.77;;;12.48;;
49131;SDS011;35149;51.196;6.204;2024-01-07T06:32:49;17.67;;;12.27;;
49131;SDS011;35149;51.196;6.204;2024-01-07T06:35:18;16.77;;;12.23;;
49131;SDS011;35149;51.196;6.204;2024-01-07T06:37:46;19.00;;;12.13;;
49131;SDS011;35149;51.196;6.204;2024-01-07T06:40:17;16.33;;;12.25;;
49131;SDS011;35149;51.196;6.204;2024-01-07T06:42:48;19.45;;;13.13;;
49131;SDS011;35149;51.196;6.204;2024-01-07T06:45:16;17.65;;;13.27;;
49131;SDS011;35149;51.196;6.204;2024-01-07T06:47:43;18.20;;;12.98;;
49131;SDS011;35149;51.196;6.204;2024-01-07T06:50:11;19.50;;;12.65;;
49131;SDS011;35149;51.196;6.204;2024-01-07T06:52:51;16.77;;;12.77;;
49131;SDS011;35149;51.196;6.204;2024-01-07T06:55:18;20.00;;;13.18;;
49131;SDS011;35149;51.196;6.204;2024-01-07T06:57:45;16.98;;;12.38;;
49131;SDS011;35149;51.196;6.204;2024-01-07T07:00:12;20.23;;;15.40;;
49131;SDS011;35149;51.196;6.204;2024-01-07T07:02:42;22.83;;;14.68;;
49131;SDS011;35149;51.196;6.204;2024-01-07T07:05:09;25.75;;;15.35;;
49131;SDS011;35149;51.196;6.204;2024-01-07T07:07:36;23.02;;;15.77;;
49131;SDS011;35149;51.196;6.204;2024-01-07T07:10:10;14.35;;;10.60;;
49131;SDS011;35149;51.196;6.204;2024-01-07T07:12:37;19.50;;;13.73;;
49131;SDS011;35149;51.196;6.204;2024-01-07T07:15:08;18.77;;;13.40;;
49131;SDS011;35149;51.196;6.204;2024-01-07T07:17:40;17.80;;;12.95;;
49131;SDS011;35149;51.196;6.204;2024-01-07T07:20:13;19.63;;;12.68;;
49131;SDS011;35149;51.196;6.204;2024-01-07T07:22:42;20.60;;;13.20;;
49131;SDS011;35149;51.196;6.204;2024-01-07T07:25:11;17.55;;;12.52;;
49131;SDS011;35149;51.196;6.204;2024-01-07T07:27:42;15.02;;;11.25;;
49131;SDS011;35149;51.196;6.204;2024-01-07T07:30:10;16.90;;;11.75;;
49131;SDS011;35149;51.196;6.204;2024-01-07T07:32:41;16.35;;;11.50;;
49131;SDS011;35149;51.196;6.204;2024-01-07T07:35:08;15.23;;;12.18;;
49131;SDS011;35149;51.196;6.204;2024-01-07T07:37:35;16.25;;;11.75;;
49131;SDS011;35149;51.196;6.204;2024-01-07T07:40:02;17.65;;;13.57;;
49131;SDS011;35149;51.196;6.204;2024-01-07T07:42:29;15.75;;;12.10;;
49131;SDS011;35149;51.196;6.204;2024-01-07T07:44:59;18.02;;;13.45;;
49131;SDS011;35149;51.196;6.204;2024-01-07T07:47:31;18.88;;;13.15;;
49131;SDS011;35149;51.196;6.204;2024-01-07T07:49:59;20.70;;;13.93;;
49131;SDS011;35149;51.196;6.204;2024-01-07T07:52:32;20.50;;;13.00;;
49131;SDS011;35149;51.196;6.204;2024-01-07T07:55:06;16.33;;;12.88;;
49131;SDS011;35149;51.196;6.204;2024-01-07T07:57:36;20.60;;;13.70;;
49131;SDS011;35149;51.196;6.204;2024-01-07T08:00:14;21.85;;;13.25;;
49131;SDS011;35149;51.196;6.204;2024-01-07T08:02:41;18.15;;;13.32;;
49131;SDS011;35149;51.196;6.204;2024-01-07T08:05:10;19.42;;;14.73;;
49131;SDS011;35149;51.196;6.204;2024-01-07T08:10:06;23.45;;;15.07;;
49131;SDS011;35149;51.196;6.204;2024-01-07T08:12:36;22.23;;;15.00;;
49131;SDS011;35149;51.196;6.204;2024-01-07T08:15:08;24.83;;;15.68;;
49131;SDS011;35149;51.196;6.204;2024-01-07T08:17:34;24.17;;;16.88;;
49131;SDS011;35149;51.196;6.204;2024-01-07T08:20:01;20.25;;;15.40;;
49131;SDS011;35149;51.196;6.204;2024-01-07T08:22:32;22.33;;;16.08;;
49131;SDS011;35149;51.196;6.204;2024-01-07T08:24:58;22.75;;;15.80;;
49131;SDS011;35149;51.196;6.204;2024-01-07T08:27:26;23.55;;;14.63;;
49131;SDS011;35149;51.196;6.204;2024-01-07T08:29:53;23.35;;;14.40;;
49131;SDS011;35149;51.196;6.204;2024-01-07T08:32:20;21.45;;;15.13;;
49131;SDS011;35149;51.196;6.204;2024-01-07T08:34:49;18.90;;;12.88;;
49131;SDS011;35149;51.196;6.204;2024-01-07T08:37:15;21.70;;;13.80;;
49131;SDS011;35149;51.196;6.204;2024-01-07T08:39:42;17.77;;;12.88;;
49131;SDS011;35149;51.196;6.204;2024-01-07T08:42:09;15.57;;;12.38;;
49131;SDS011;35149;51.196;6.204;2024-01-07T08:44:36;22.90;;;14.95;;
49131;SDS011;35149;51.196;6.204;2024-01-07T08:47:02;18.17;;;13.60;;
49131;SDS011;35149;51.196;6.204;2024-01-07T08:49:30;19.55;;;13.55;;
49131;SDS011;35149;51.196;6.204;2024-01-07T08:52:00;16.17;;;11.93;;
49131;SDS011;35149;51.196;6.204;2024-01-07T08:54:27;18.40;;;13.30;;
49131;SDS011;35149;51.196;6.204;2024-01-07T08:56:53;21.10;;;12.80;;
49131;SDS011;35149;51.196;6.204;2024-01-07T08:59:20;19.85;;;13.10;;
49131;SDS011;35149;51.196;6.204;2024-01-07T09:01:47;19.08;;;15.63;;
49131;SDS011;35149;51.196;6.204;2024-01-07T09:04:15;20.58;;;14.02;;
49131;SDS011;35149;51.196;6.204;2024-01-07T09:06:44;19.75;;;14.27;;
49131;SDS011;35149;51.196;6.204;2024-01-07T09:09:11;20.25;;;13.82;;
49131;SDS011;35149;51.196;6.204;2024-01-07T09:11:37;17.52;;;12.95;;
49131;SDS011;35149;51.196;6.204;2024-01-07T09:14:04;17.35;;;12.23;;
49131;SDS011;35149;51.196;6.204;2024-01-07T09:16:31;18.40;;;12.95;;
49131;SDS011;35149;51.196;6.204;2024-01-07T09:18:58;17.27;;;13.38;;
49131;SDS011;35149;51.196;6.204;2024-01-07T09:21:25;19.75;;;13.15;;
49131;SDS011;35149;51.196;6.204;2024-01-07T09:23:54;19.13;;;12.73;;
49131;SDS011;35149;51.196;6.204;2024-01-07T09:26:21;18.25;;;11.80;;
49131;SDS011;35149;51.196;6.204;2024-01-07T09:28:48;19.05;;;12.77;;
49131;SDS011;35149;51.196;6.204;2024-01-07T09:31:15;16.75;;;12.38;;
49131;SDS011;35149;51.196;6.204;2024-01-07T09:33:45;15.70;;;11.85;;
49131;SDS011;35149;51.196;6.204;2024-01-07T09:36:11;17.30;;;13.48;;
49131;SDS011;35149;51.196;6.204;2024-01-07T09:38:54;18.73;;;13.25;;
49131;SDS011;35149;51.196;6.204;2024-01-07T09:41:22;18.13;;;12.85;;
49131;SDS011;35149;51.196;6.204;2024-01-07T09:43:51;15.98;;;12.10;;
49131;SDS011;35149;51.196;6.204;2024-01-07T09:46:19;15.70;;;12.30;;
49131;SDS011;35149;51.196;6.204;2024-01-07T09:48:46;15.95;;;12.40;;
49131;SDS011;35149;51.196;6.204;2024-01-07T09:51:15;18.15;;;13.77;;
49131;SDS011;35149;51.196;6.204;2024-01-07T09:56:28;16.20;;;11.43;;
49131;SDS011;35149;51.196;6.204;2024-01-07T09:59:00;16.20;;;11.82;;
49131;SDS011;35149;51.196;6.204;2024-01-07T10:01:27;18.30;;;13.63;;
49131;SDS011;35149;51.196;6.204;2024-01-07T10:03:54;16.92;;;13.68;;
49131;SDS011;35149;51.196;6.204;2024-01-07T10:06:23;20.13;;;15.00;;
49131;SDS011;35149;51.196;6.204;2024-01-07T10:08:49;18.60;;;13.57;;
49131;SDS011;35149;51.196;6.204;2024-01-07T10:11:16;19.92;;;13.88;;
49131;SDS011;35149;51.196;6.204;2024-01-07T10:13:46;18.85;;;14.02;;
49131;SDS011;35149;51.196;6.204;2024-01-07T10:16:17;17.42;;;14.13;;
49131;SDS011;35149;51.196;6.204;2024-01-07T10:18:44;19.52;;;13.88;;
49131;SDS011;35149;51.196;6.204;2024-01-07T10:21:11;19.80;;;14.52;;
49131;SDS011;35149;51.196;6.204;2024-01-07T10:23:37;21.23;;;16.10;;
49131;SDS011;35149;51.196;6.204;2024-01-07T10:26:04;20.52;;;14.70;;
49131;SDS011;35149;51.196;6.204;2024-01-07T10:28:45;18.08;;;14.52;;
49131;SDS011;35149;51.196;6.204;2024-01-07T10:31:12;20.48;;;13.82;;
49131;SDS011;35149;51.196;6.204;2024-01-07T10:33:40;22.08;;;14.88;;
49131;SDS011;35149;51.196;6.204;2024-01-07T10:36:07;20.35;;;15.27;;
49131;SDS011;35149;51.196;6.204;2024-01-07T10:38:35;24.08;;;15.57;;
49131;SDS011;35149;51.196;6.204;2024-01-07T10:41:04;23.35;;;15.55;;
49131;SDS011;35149;51.196;6.204;2024-01-07T10:43:32;18.52;;;14.40;;
49131;SDS011;35149;51.196;6.204;2024-01-07T10:46:02;20.40;;;15.15;;
49131;SDS011;35149;51.196;6.204;2024-01-07T10:48:31;20.15;;;14.75;;
49131;SDS011;35149;51.196;6.204;2024-01-07T10:51:02;19.43;;;13.83;;
49131;SDS011;35149;51.196;6.204;2024-01-07T10:53:33;18.50;;;14.25;;
49131;SDS011;35149;51.196;6.204;2024-01-07T10:56:03;19.23;;;14.70;;
49131;SDS011;35149;51.196;6.204;2024-01-07T10:58:35;17.30;;;13.93;;
49131;SDS011;35149;51.196;6.204;2024-01-07T11:01:03;16.80;;;11.23;;
49131;SDS011;35149;51.196;6.204;2024-01-07T11:08:58;20.58;;;14.32;;
49131;SDS011;35149;51.196;6.204;2024-01-07T11:11:35;19.05;;;14.52;;
49131;SDS011;35149;51.196;6.204;2024-01-07T11:20:06;17.17;;;13.77;;
49131;SDS011;35149;51.196;6.204;2024-01-07T11:25:27;17.25;;;12.70;;
49131;SDS011;35149;51.196;6.204;2024-01-07T11:27:57;14.77;;;11.38;;
49131;SDS011;35149;51.196;6.204;2024-01-07T11:30:24;15.32;;;11.32;;
49131;SDS011;35149;51.196;6.204;2024-01-07T11:32:58;15.43;;;11.57;;
49131;SDS011;35149;51.196;6.204;2024-01-07T11:38:27;13.50;;;10.45;;
49131;SDS011;35149;51.196;6.204;2024-01-07T11:40:54;15.23;;;10.10;;
49131;SDS011;35149;51.196;6.204;2024-01-07T11:43:22;14.68;;;12.38;;
49131;SDS011;35149;51.196;6.204;2024-01-07T11:45:49;15.05;;;11.18;;
49131;SDS011;35149;51.196;6.204;2024-01-07T11:48:20;12.20;;;10.40;;
49131;SDS011;35149;51.196;6.204;2024-01-07T11:50:47;12.30;;;10.70;;
49131;SDS011;35149;51.196;6.204;2024-01-07T11:53:15;14.80;;;10.77;;
49131;SDS011;35149;51.196;6.204;2024-01-07T11:55:42;14.38;;;10.68;;
49131;SDS011;35149;51.196;6.204;2024-01-07T11:58:11;13.05;;;10.57;;
49131;SDS011;35149;51.196;6.204;2024-01-07T12:00:38;13.68;;;11.18;;
49131;SDS011;35149;51.196;6.204;2024-01-07T12:03:04;11.63;;;10.38;;
49131;SDS011;35149;51.196;6.204;2024-01-07T12:05:31;16.50;;;11.48;;
49131;SDS011;35149;51.196;6.204;2024-01-07T12:07:59;13.98;;;10.80;;
49131;SDS011;35149;51.196;6.204;2024-01-07T12:10:26;12.07;;;10.15;;
49131;SDS011;35149;51.196;6.204;2024-01-07T12:12:53;15.77;;;11.43;;
49131;SDS011;35149;51.196;6.204;2024-01-07T12:15:20;12.25;;;10.15;;
49131;SDS011;35149;51.196;6.204;2024-01-07T12:17:58;13.07;;;10.38;;
49131;SDS011;35149;51.196;6.204;2024-01-07T12:20:28;13.27;;;10.18;;
49131;SDS011;35149;51.196;6.204;2024-01-07T12:22:55;12.02;;;10.30;;
49131;SDS011;35149;51.196;6.204;2024-01-07T12:25:23;14.90;;;10.55;;
49131;SDS011;35149;51.196;6.204;2024-01-07T12:27:52;15.93;;;11.20;;
49131;SDS011;35149;51.196;6.204;2024-01-07T12:30:20;13.30;;;10.15;;
49131;SDS011;35149;51.196;6.204;2024-01-07T12:32:48;12.00;;;9.75;;
49131;SDS011;35149;51.196;6.204;2024-01-07T12:35:18;11.23;;;8.97;;
49131;SDS011;35149;51.196;6.204;2024-01-07T12:37:45;13.45;;;10.15;;
49131;SDS011;35149;51.196;6.204;2024-01-07T12:40:11;15.60;;;11.45;;
49131;SDS011;35149;51.196;6.204;2024-01-07T12:42:39;17.15;;;11.18;;
49131;SDS011;35149;51.196;6.204;2024-01-07T12:45:14;11.10;;;9.98;;
49131;SDS011;35149;51.196;6.204;2024-01-07T12:47:41;12.30;;;9.10;;
49131;SDS011;35149;51.196;6.204;2024-01-07T12:50:09;10.63;;;9.00;;
49131;SDS011;35149;51.196;6.204;2024-01-07T12:52:37;10.75;;;8.38;;
49131;SDS011;35149;51.196;6.204;2024-01-07T12:55:07;9.43;;;8.38;;
49131;SDS011;35149;51.196;6.204;2024-01-07T12:57:34;10.23;;;7.85;;
49131;SDS011;35149;51.196;6.204;2024-01-07T13:00:04;9.82;;;7.50;;
49131;SDS011;35149;51.196;6.204;2024-01-07T13:02:34;12.15;;;8.02;;
49131;SDS011;35149;51.196;6.204;2024-01-07T13:05:01;9.70;;;7.07;;
49131;SDS011;35149;51.196;6.204;2024-01-07T13:07:29;8.90;;;7.60;;
49131;SDS011;35149;51.196;6.204;2024-01-07T13:09:58;10.82;;;8.20;;
49131;SDS011;35149;51.196;6.204;2024-01-07T13:12:25;11.40;;;7.68;;
49131;SDS011;35149;51.196;6.204;2024-01-07T13:15:08;9.52;;;6.90;;
49131;SDS011;35149;51.196;6.204;2024-01-07T13:17:36;10.00;;;8.25;;
49131;SDS011;35149;51.196;6.204;2024-01-07T13:20:04;10.63;;;8.27;;
49131;SDS011;35149;51.196;6.204;2024-01-07T13:22:32;8.48;;;7.57;;
49131;SDS011;35149;51.196;6.204;2024-01-07T13:25:00;8.57;;;6.65;;
49131;SDS011;35149;51.196;6.204;2024-01-07T13:27:27;8.20;;;7.38;;
49131;SDS011;35149;51.196;6.204;2024-01-07T13:29:54;8.05;;;6.68;;
49131;SDS011;35149;51.196;6.204;2024-01-07T13:32:20;8.02;;;6.97;;
49131;SDS011;35149;51.196;6.204;2024-01-07T13:34:47;7.35;;;6.22;;
49131;SDS011;35149;51.196;6.204;2024-01-07T13:37:14;8.32;;;7.20;;
49131;SDS011;35149;51.196;6.204;2024-01-07T13:39:43;7.18;;;6.47;;
49131;SDS011;35149;51.196;6.204;2024-01-07T13:42:11;7.60;;;6.88;;
49131;SDS011;35149;51.196;6.204;2024-01-07T13:44:38;10.25;;;6.45;;
49131;SDS011;35149;51.196;6.204;2024-01-07T13:47:12;6.78;;;5.90;;
49131;SDS011;35149;51.196;6.204;2024-01-07T13:49:42;8.27;;;6.25;;
49131;SDS011;35149;51.196;6.204;2024-01-07T13:52:11;7.72;;;6.82;;
49131;SDS011;35149;51.196;6.204;2024-01-07T13:54:40;7.57;;;6.57;;
49131;SDS011;35149;51.196;6.204;2024-01-07T13:57:07;6.30;;;5.63;;
49131;SDS011;35149;51.196;6.204;2024-01-07T13:59:34;9.05;;;5.95;;
49131;SDS011;35149;51.196;6.204;2024-01-07T14:02:01;7.10;;;6.28;;
49131;SDS011;35149;51.196;6.204;2024-01-07T14:04:29;7.68;;;5.85;;
49131;SDS011;35149;51.196;6.204;2024-01-07T14:06:58;8.05;;;5.22;;
49131;SDS011;35149;51.196;6.204;2024-01-07T14:09:25;6.50;;;5.65;;
49131;SDS011;35149;51.196;6.204;2024-01-07T14:11:57;6.35;;;4.00;;
49131;SDS011;35149;51.196;6.204;2024-01-07T14:14:25;6.03;;;4.93;;
49131;SDS011;35149;51.196;6.204;2024-01-07T14:16:52;8.40;;;6.88;;
49131;SDS011;35149;51.196;6.204;2024-01-07T14:19:18;6.18;;;5.57;;
49131;SDS011;35149;51.196;6.204;2024-01-07T14:21:48;8.35;;;6.00;;
49131;SDS011;35149;51.196;6.204;2024-01-07T14:24:16;8.27;;;6.20;;
49131;SDS011;35149;51.196;6.204;2024-01-07T14:26:43;7.68;;;6.93;;
49131;SDS011;35149;51.196;6.204;2024-01-07T14:29:10;8.98;;;7.85;;
49131;SDS011;35149;51.196;6.204;2024-01-07T14:31:43;8.63;;;7.25;;
49131;SDS011;35149;51.196;6.204;2024-01-07T14:34:12;10.10;;;8.35;;
49131;SDS011;35149;51.196;6.204;2024-01-07T14:36:39;9.57;;;7.38;;
49131;SDS011;35149;51.196;6.204;2024-01-07T14:39:07;6.57;;;5.88;;
49131;SDS011;35149;51.196;6.204;2024-01-07T14:41:35;8.85;;;7.13;;
49131;SDS011;35149;51.196;6.204;2024-01-07T14:44:03;7.50;;;6.30;;
49131;SDS011;35149;51.196;6.204;2024-01-07T14:46:36;10.05;;;5.78;;
49131;SDS011;35149;51.196;6.204;2024-01-07T14:49:03;8.82;;;6.10;;
49131;SDS011;35149;51.196;6.204;2024-01-07T14:51:31;5.22;;;4.68;;
49131;SDS011;35149;51.196;6.204;2024-01-07T14:53:58;5.88;;;4.63;;
49131;SDS011;35149;51.196;6.204;2024-01-07T14:56:25;7.03;;;5.47;;
49131;SDS011;35149;51.196;6.204;2024-01-07T14:58:52;5.22;;;4.72;;
49131;SDS011;35149;51.196;6.204;2024-01-07T15:01:19;6.07;;;4.43;;
49131;SDS011;35149;51.196;6.204;2024-01-07T15:03:47;5.00;;;4.50;;
49131;SDS011;35149;51.196;6.204;2024-01-07T15:06:13;6.60;;;4.45;;
49131;SDS011;35149;51.196;6.204;2024-01-07T15:08:41;5.10;;;4.10;;